Time;durP1;ratioP1;P1;durP2;ratioP2;P2;SDS_P1;SDS_P2;PMS_P1;PMS_P2;Temp;Humidity;BMP_temperature;BMP_pressure;BME280_temperature;BME280_humidity;BME280_pressure;Samples;Min_cycle;Max_cycle;Signal;HPM_P1;HPM_P2
2022/05/12 00:01:20;;;;;;;3.60;3.22;;;23.40;50.30;;;;;;4991459;28;20397;-65
2022/05/12 00:03:46;;;;;;;4.03;3.13;;;23.40;50.20;;;;;;4991460;28;20398;-65
2022/05/12 00:06:12;;;;;;;3.60;3.20;;;23.40;50.20;;;;;;4991043;28;20421;-65
2022/05/12 00:08:37;;;;;;;3.80;3.13;;;23.40;50.20;;;;;;4991370;28;20501;-65
2022/05/12 00:11:04;;;;;;;3.45;3.13;;;23.40;50.10;;;;;;4995002;28;20449;-65
2022/05/12 00:13:30;;;;;;;3.60;3.30;;;23.40;50.20;;;;;;4994687;28;20404;-65
2022/05/12 00:15:55;;;;;;;4.63;3.40;;;23.40;50.10;;;;;;4995102;28;20394;-65
2022/05/12 00:18:21;;;;;;;3.83;3.45;;;23.40;50.20;;;;;;4994998;28;20608;-65
2022/05/12 00:20:47;;;;;;;3.70;3.20;;;23.30;50.10;;;;;;4995104;28;20405;-65
2022/05/12 00:23:29;;;;;;;4.00;3.20;;;23.30;50.00;;;;;;4994995;28;20425;-65
2022/05/12 00:25:55;;;;;;;3.80;3.40;;;23.30;50.00;;;;;;4994957;28;20395;-65
2022/05/12 00:28:24;;;;;;;3.23;2.93;;;23.30;50.00;;;;;;5009951;28;20886;-65
2022/05/12 00:30:53;;;;;;;3.78;3.30;;;23.30;50.00;;;;;;4994914;28;20458;-65
2022/05/12 00:33:20;;;;;;;3.38;3.08;;;23.30;50.00;;;;;;4994517;28;20847;-65
2022/05/12 00:35:46;;;;;;;3.63;3.20;;;23.30;50.00;;;;;;4994321;28;20788;-65
2022/05/12 00:38:13;;;;;;;4.00;3.00;;;23.30;50.00;;;;;;4994719;28;20427;-65
2022/05/12 00:40:41;;;;;;;3.50;3.20;;;23.30;50.60;;;;;;4994641;28;20402;-65
2022/05/12 00:43:28;;;;;;;3.42;3.13;;;23.30;49.90;;;;;;4994698;28;20413;-65
2022/05/12 00:45:54;;;;;;;3.70;3.30;;;23.30;50.00;;;;;;4994544;28;20395;-65
2022/05/12 00:48:20;;;;;;;3.43;3.13;;;23.30;49.90;;;;;;4994561;28;20397;-65
2022/05/12 00:50:46;;;;;;;4.18;3.20;;;23.30;49.90;;;;;;4994197;28;20410;-65
2022/05/12 00:53:12;;;;;;;3.60;3.10;;;23.30;49.90;;;;;;4994456;28;20402;-65
2022/05/12 00:55:41;;;;;;;3.50;3.20;;;23.30;49.90;;;;;;4993956;28;20379;-65
2022/05/12 00:58:10;;;;;;;3.22;2.80;;;23.30;49.80;;;;;;4994340;28;20458;-65
2022/05/12 01:00:37;;;;;;;3.47;2.90;;;23.30;49.90;;;;;;4994205;28;20403;-65
2022/05/12 01:03:07;;;;;;;4.05;3.40;;;23.30;49.90;;;;;;4994267;28;20750;-65
2022/05/12 01:05:33;;;;;;;4.00;3.10;;;23.20;49.80;;;;;;4993709;28;20399;-65
2022/05/12 01:07:59;;;;;;;3.17;2.88;;;23.20;49.80;;;;;;4994232;28;20387;-65
2022/05/12 01:10:26;;;;;;;3.40;3.00;;;23.20;49.70;;;;;;4994084;28;20977;-65
2022/05/12 01:12:52;;;;;;;4.00;3.00;;;23.20;49.70;;;;;;4993993;28;20926;-65
2022/05/12 01:15:21;;;;;;;3.50;3.10;;;23.20;49.60;;;;;;4993812;28;20863;-65
2022/05/12 01:17:47;;;;;;;3.70;3.22;;;23.20;49.70;;;;;;4993781;28;20819;-65
2022/05/12 01:20:14;;;;;;;4.30;3.27;;;23.20;49.70;;;;;;4993215;28;20883;-65
2022/05/12 01:23:05;;;;;;;3.63;3.00;;;23.20;49.60;;;;;;4992953;28;20402;-65
2022/05/12 01:25:31;;;;;;;3.58;3.28;;;23.20;49.70;;;;;;4993323;28;20395;-65
2022/05/12 01:27:57;;;;;;;3.70;3.20;;;23.20;49.60;;;;;;4993872;28;20481;-65
2022/05/12 01:30:24;;;;;;;3.90;3.30;;;23.20;49.60;;;;;;4993663;28;20930;-65
2022/05/12 01:32:50;;;;;;;3.30;3.00;;;23.20;49.70;;;;;;4993752;28;20802;-65
2022/05/12 01:35:20;;;;;;;3.60;3.10;;;23.20;49.60;;;;;;5008425;28;20395;-65
2022/05/12 01:37:46;;;;;;;3.58;3.10;;;23.20;49.60;;;;;;4993372;28;20390;-65
2022/05/12 01:40:16;;;;;;;3.50;3.20;;;23.20;49.60;;;;;;4993573;28;20449;-65
2022/05/12 01:42:41;;;;;;;3.53;3.20;;;23.20;49.60;;;;;;5008623;28;20387;-65
2022/05/12 01:45:09;;;;;;;4.03;3.17;;;23.20;49.60;;;;;;4993531;28;20464;-65
2022/05/12 01:47:36;;;;;;;3.72;3.00;;;23.20;49.50;;;;;;4992874;28;20867;-65
2022/05/12 01:50:03;;;;;;;3.27;2.97;;;23.10;49.50;;;;;;4993515;28;20468;-65
2022/05/12 01:52:28;;;;;;;3.58;2.90;;;23.10;49.50;;;;;;4993298;28;20426;-65
2022/05/12 01:54:54;;;;;;;3.33;2.90;;;23.10;49.50;;;;;;4993348;28;20387;-65
2022/05/12 01:57:22;;;;;;;3.50;3.00;;;23.10;49.40;;;;;;4993030;28;20898;-65
2022/05/12 01:59:49;;;;;;;3.20;2.90;;;23.10;49.40;;;;;;4993085;28;20398;-65
2022/05/12 02:02:14;;;;;;;3.15;2.85;;;23.10;49.40;;;;;;4993120;28;20395;-65
2022/05/12 02:04:41;;;;;;;3.28;2.97;;;23.10;49.40;;;;;;4993167;28;20386;-65
2022/05/12 02:07:07;;;;;;;3.30;3.00;;;23.10;49.30;;;;;;4993090;28;20435;-65
2022/05/12 02:09:32;;;;;;;3.20;2.90;;;23.10;49.40;;;;;;4992589;28;20477;-65
2022/05/12 02:11:58;;;;;;;3.80;3.03;;;23.10;49.40;;;;;;5007841;28;20569;-65
2022/05/12 02:14:24;;;;;;;3.60;3.00;;;23.10;49.40;;;;;;4992890;28;20399;-65
2022/05/12 02:16:49;;;;;;;3.50;2.97;;;23.10;49.40;;;;;;4992923;28;20394;-65
2022/05/12 02:19:15;;;;;;;3.40;2.97;;;23.10;49.40;;;;;;4992831;28;20449;-65
2022/05/12 02:21:40;;;;;;;3.60;3.10;;;23.10;49.40;;;;;;4992433;28;20401;-65
2022/05/12 02:24:07;;;;;;;3.27;2.97;;;23.10;49.40;;;;;;4992758;28;20778;-65
2022/05/12 02:26:32;;;;;;;3.75;2.97;;;23.10;49.30;;;;;;5007762;28;20409;-65
2022/05/12 02:28:58;;;;;;;3.72;3.10;;;23.10;49.40;;;;;;4992724;28;20825;-65
2022/05/12 02:31:24;;;;;;;3.25;2.85;;;23.10;49.30;;;;;;5007338;28;20433;-65
2022/05/12 02:33:50;;;;;;;4.07;3.13;;;23.00;49.20;;;;;;5006649;28;20403;-65
2022/05/12 02:36:16;;;;;;;3.30;3.00;;;23.10;49.20;;;;;;4992125;28;20412;-65
2022/05/12 02:38:42;;;;;;;3.30;2.88;;;23.00;49.20;;;;;;5007073;28;20794;-65
2022/05/12 02:41:08;;;;;;;3.47;3.17;;;23.10;49.30;;;;;;4992594;28;20394;-65
2022/05/12 02:43:33;;;;;;;3.33;2.95;;;23.00;49.20;;;;;;4991855;28;20750;-65
2022/05/12 02:46:03;;;;;;;4.07;3.00;;;23.00;49.20;;;;;;4992479;28;20453;-65
2022/05/12 02:48:31;;;;;;;3.37;3.00;;;23.00;49.20;;;;;;4992304;28;20490;-65
2022/05/12 02:50:57;;;;;;;3.42;3.00;;;23.00;49.20;;;;;;4992075;28;20478;-65
2022/05/12 02:53:24;;;;;;;3.35;3.00;;;23.00;49.10;;;;;;4991999;28;20475;-65
2022/05/12 02:55:49;;;;;;;3.58;3.28;;;23.00;49.20;;;;;;4992145;28;20533;-65
2022/05/12 02:58:15;;;;;;;3.53;3.23;;;23.00;49.10;;;;;;4992305;28;20485;-65
2022/05/12 03:00:41;;;;;;;3.70;3.10;;;23.00;49.80;;;;;;4992274;28;20394;-65
2022/05/12 03:03:07;;;;;;;3.65;2.95;;;23.00;49.10;;;;;;4992233;28;20382;-65
2022/05/12 03:05:35;;;;;;;3.40;3.00;;;23.00;49.10;;;;;;4991678;28;20394;-65
2022/05/12 03:08:00;;;;;;;5.95;3.00;;;23.00;49.10;;;;;;4992069;28;20398;-65
2022/05/12 03:10:26;;;;;;;5.43;3.00;;;23.00;49.50;;;;;;4992057;28;20400;-65
2022/05/12 03:12:52;;;;;;;4.70;2.92;;;23.00;49.30;;;;;;4991834;28;20453;-65
2022/05/12 03:15:19;;;;;;;9.18;5.28;;;23.00;49.80;;;;;;4991963;28;20414;-65
2022/05/12 03:17:45;;;;;;;5.25;3.55;;;23.00;51.00;;;;;;4991572;28;20484;-65
2022/05/12 03:20:17;;;;;;;10.45;4.18;;;23.00;50.00;;;;;;4991980;28;20393;-66
2022/05/12 03:22:43;;;;;;;6.05;3.90;;;23.00;52.10;;;;;;4992160;28;20403;-65
2022/05/12 03:25:11;;;;;;;8.43;3.85;;;23.10;50.70;;;;;;4991410;28;20453;-65
2022/05/12 03:27:37;;;;;;;8.60;3.50;;;23.10;51.50;;;;;;4991489;28;20399;-65
2022/05/12 03:30:07;;;;;;;9.65;3.67;;;23.10;51.60;;;;;;4991903;28;20453;-66
2022/05/12 03:32:33;;;;;;;10.40;3.53;;;23.20;51.60;;;;;;4991838;28;20454;-66
2022/05/12 03:34:59;;;;;;;6.90;3.38;;;23.20;51.50;;;;;;4991863;28;20477;-66
2022/05/12 03:37:25;;;;;;;7.00;3.42;;;23.20;51.30;;;;;;4991501;28;20490;-65
2022/05/12 03:39:51;;;;;;;14.15;3.50;;;23.20;51.10;;;;;;4991874;28;20489;-65
2022/05/12 03:42:18;;;;;;;5.28;3.35;;;23.20;51.00;;;;;;4991828;28;20452;-64
2022/05/12 03:44:49;;;;;;;11.45;3.50;;;23.20;50.80;;;;;;4993631;28;20390;-65
2022/05/12 03:47:28;;;;;;;6.82;3.63;;;23.30;51.30;;;;;;4999590;28;20394;-65
2022/05/12 03:50:01;;;;;;;5.05;3.30;;;23.30;51.40;;;;;;4991437;28;20433;-65
2022/05/12 03:52:27;;;;;;;4.85;3.33;;;23.30;51.20;;;;;;4992728;28;20432;-65
2022/05/12 03:54:53;;;;;;;7.50;3.30;;;23.30;51.40;;;;;;4990086;28;20398;-65
2022/05/12 03:57:20;;;;;;;7.65;3.40;;;23.30;51.90;;;;;;4992074;28;20394;-65
2022/05/12 03:59:49;;;;;;;5.90;3.40;;;23.30;51.70;;;;;;5009958;28;20401;-65
2022/05/12 04:02:16;;;;;;;5.68;3.30;;;23.30;52.20;;;;;;4995340;28;20909;-65
2022/05/12 04:04:43;;;;;;;9.80;3.30;;;23.30;51.20;;;;;;4995195;28;20399;-65
2022/05/12 04:07:12;;;;;;;10.73;3.42;;;23.20;50.90;;;;;;4995569;28;20401;-65
2022/05/12 04:09:38;;;;;;;10.93;3.67;;;23.20;50.80;;;;;;5009886;28;20399;-65
2022/05/12 04:12:09;;;;;;;13.23;3.72;;;23.20;50.50;;;;;;4994902;28;20476;-65
2022/05/12 04:14:39;;;;;;;10.82;3.55;;;23.20;50.20;;;;;;4994923;28;20440;-65
2022/05/12 04:17:07;;;;;;;13.35;4.20;;;23.10;50.00;;;;;;4995189;28;20390;-65
2022/05/12 04:19:32;;;;;;;13.32;3.95;;;23.10;49.20;;;;;;4994782;28;20875;-65
2022/05/12 04:21:58;;;;;;;11.47;4.20;;;23.10;49.60;;;;;;4994663;28;20413;-65
2022/05/12 04:24:24;;;;;;;15.95;4.00;;;23.10;49.20;;;;;;4994748;28;20879;-65
2022/05/12 04:26:49;;;;;;;15.03;4.53;;;23.10;49.10;;;;;;4994936;28;20405;-65
2022/05/12 04:29:16;;;;;;;10.53;4.30;;;23.10;49.50;;;;;;4994872;28;20390;-66
2022/05/12 04:31:41;;;;;;;12.50;3.70;;;23.10;49.20;;;;;;4994342;28;20562;-66
2022/05/12 04:36:52;;;;;;;9.27;3.63;;;23.10;49.00;;;;;;4994628;28;20482;-66
2022/05/12 04:39:18;;;;;;;9.95;3.75;;;23.10;49.00;;;;;;4994644;28;20413;-65
2022/05/12 04:41:44;;;;;;;6.83;3.73;;;23.10;49.00;;;;;;4994121;28;20899;-65
2022/05/12 04:44:11;;;;;;;12.55;4.00;;;23.10;49.00;;;;;;4994675;28;20457;-65
2022/05/12 04:46:37;;;;;;;6.03;3.53;;;23.10;49.00;;;;;;5009703;28;20807;-65
2022/05/12 04:49:05;;;;;;;7.30;4.00;;;23.00;49.00;;;;;;4994651;28;20399;-66
2022/05/12 04:51:31;;;;;;;7.15;3.95;;;23.10;49.00;;;;;;4994157;28;20421;-65
2022/05/12 04:53:58;;;;;;;5.88;3.58;;;23.10;49.00;;;;;;5009324;28;20910;-65
2022/05/12 04:56:24;;;;;;;7.20;3.78;;;23.10;49.00;;;;;;4993315;28;20395;-65
2022/05/12 04:58:50;;;;;;;7.20;3.80;;;23.10;49.00;;;;;;4994309;28;20394;-65
2022/05/12 05:01:15;;;;;;;5.80;3.60;;;23.00;49.60;;;;;;4994280;28;20402;-66
2022/05/12 05:03:42;;;;;;;4.93;3.50;;;23.00;49.00;;;;;;4993701;28;20871;-65
2022/05/12 05:06:08;;;;;;;5.28;3.55;;;23.00;49.50;;;;;;4994111;28;20430;-65
2022/05/12 05:08:35;;;;;;;5.32;3.72;;;23.00;48.90;;;;;;4993604;28;20383;-65
2022/05/12 05:11:00;;;;;;;6.15;3.50;;;23.00;49.00;;;;;;4993780;28;20419;-65
2022/05/12 05:13:27;;;;;;;6.82;3.92;;;23.00;49.10;;;;;;5009201;28;20433;-65
2022/05/12 05:15:53;;;;;;;10.93;6.57;;;23.00;49.80;;;;;;4993676;28;20486;-65
2022/05/12 05:18:20;;;;;;;6.15;4.80;;;23.10;50.60;;;;;;4994048;28;20453;-66
2022/05/12 05:20:46;;;;;;;5.95;4.10;;;23.10;50.50;;;;;;4990351;28;20863;-65
2022/05/12 05:23:15;;;;;;;6.47;4.10;;;23.10;50.10;;;;;;4984864;28;20897;-66
2022/05/12 05:25:41;;;;;;;6.53;3.80;;;23.10;49.90;;;;;;4984385;28;20398;-65
2022/05/12 05:28:09;;;;;;;5.63;4.00;;;23.20;49.90;;;;;;4988173;28;20395;-65
2022/05/12 05:30:35;;;;;;;5.50;3.70;;;23.20;49.90;;;;;;4993618;28;20407;-66
2022/05/12 05:33:01;;;;;;;4.95;3.53;;;23.20;49.90;;;;;;5008985;28;20403;-66
2022/05/12 05:35:26;;;;;;;4.55;3.55;;;23.20;49.90;;;;;;4993639;28;20798;-65
2022/05/12 05:37:53;;;;;;;4.77;3.70;;;23.20;50.70;;;;;;4994406;28;20411;-65
2022/05/12 05:40:22;;;;;;;5.63;3.90;;;23.20;50.00;;;;;;4993406;28;20391;-65
2022/05/12 05:42:48;;;;;;;5.43;3.95;;;23.20;49.80;;;;;;4993419;28;20490;-65
2022/05/12 05:45:17;;;;;;;7.27;4.20;;;23.20;50.30;;;;;;4992587;28;20537;-65
2022/05/12 05:47:46;;;;;;;7.35;4.22;;;23.20;50.10;;;;;;4992951;28;20897;-65
2022/05/12 05:50:17;;;;;;;8.00;3.92;;;23.30;50.00;;;;;;4987171;28;20415;-66
2022/05/12 05:55:27;;;;;;;5.85;4.00;;;23.30;50.60;;;;;;4989568;28;20386;-65
2022/05/12 05:57:53;;;;;;;6.45;3.92;;;23.30;50.70;;;;;;4992461;28;20398;-65
2022/05/12 06:00:19;;;;;;;7.93;4.57;;;23.40;51.10;;;;;;4983702;28;20438;-65
2022/05/12 06:02:45;;;;;;;10.77;4.25;;;23.40;51.80;;;;;;4993013;28;20543;-65
2022/05/12 06:05:11;;;;;;;10.68;3.92;;;23.40;52.30;;;;;;5007908;28;20394;-65
2022/05/12 06:07:39;;;;;;;8.47;3.93;;;23.40;52.30;;;;;;4992327;28;20398;-66
2022/05/12 06:10:06;;;;;;;10.50;4.03;;;23.40;51.90;;;;;;4989143;28;20398;-65
2022/05/12 06:12:33;;;;;;;8.30;3.73;;;23.40;51.70;;;;;;4992474;28;20900;-66
2022/05/12 06:14:59;;;;;;;8.43;3.88;;;23.40;51.60;;;;;;4992869;28;20866;-66
2022/05/12 06:17:25;;;;;;;6.65;3.55;;;23.40;51.30;;;;;;4992887;28;20424;-66
2022/05/12 06:19:52;;;;;;;7.32;3.85;;;23.40;51.10;;;;;;5007327;28;20390;-66
2022/05/12 06:22:19;;;;;;;6.05;3.80;;;23.40;50.90;;;;;;4992604;28;20398;-66
2022/05/12 06:24:47;;;;;;;6.80;3.45;;;23.50;50.80;;;;;;4992335;28;20401;-66
2022/05/12 06:27:16;;;;;;;4.23;3.30;;;23.50;50.70;;;;;;5007594;28;20403;-67
2022/05/12 06:29:44;;;;;;;6.33;3.63;;;23.50;50.70;;;;;;4992139;28;20438;-66
2022/05/12 06:32:10;;;;;;;5.47;3.47;;;23.50;50.60;;;;;;4992242;28;20516;-66
2022/05/12 06:34:36;;;;;;;5.65;3.60;;;23.50;50.70;;;;;;4992399;28;20387;-66
2022/05/12 06:37:04;;;;;;;6.68;3.40;;;23.50;50.70;;;;;;4992225;28;20593;-66
2022/05/12 06:39:30;;;;;;;6.90;3.47;;;23.50;50.70;;;;;;4992345;28;20441;-65
2022/05/12 06:41:56;;;;;;;8.40;3.60;;;23.60;50.70;;;;;;4991776;28;20477;-65
2022/05/12 06:44:22;;;;;;;5.55;3.25;;;23.60;50.70;;;;;;4992362;28;20453;-66
2022/05/12 06:46:48;;;;;;;5.28;3.40;;;23.60;50.70;;;;;;4992851;28;20399;-66
2022/05/12 06:49:14;;;;;;;5.63;3.50;;;23.60;50.60;;;;;;4992913;28;20931;-66
2022/05/12 06:51:39;;;;;;;7.70;3.40;;;23.60;50.50;;;;;;4992224;28;20490;-66
2022/05/12 06:54:05;;;;;;;4.97;3.50;;;23.60;50.50;;;;;;4992536;28;20494;-65
2022/05/12 06:56:31;;;;;;;5.78;3.42;;;23.60;50.40;;;;;;4992003;28;20464;-66
2022/05/12 06:58:57;;;;;;;5.57;3.40;;;23.60;50.50;;;;;;4992106;28;20445;-65
2022/05/12 07:01:24;;;;;;;4.03;3.08;;;23.60;50.40;;;;;;4991900;28;20395;-65
2022/05/12 07:03:50;;;;;;;4.40;3.17;;;23.60;50.40;;;;;;4991412;28;20398;-66
2022/05/12 07:06:17;;;;;;;5.60;3.40;;;23.60;50.30;;;;;;4991989;28;20394;-66
2022/05/12 07:08:43;;;;;;;3.97;3.20;;;23.60;50.30;;;;;;4991618;28;20391;-65
2022/05/12 07:11:10;;;;;;;4.00;3.27;;;23.60;50.20;;;;;;4991657;28;20567;-66
2022/05/12 07:13:36;;;;;;;4.28;3.10;;;23.60;50.30;;;;;;4992018;28;20398;-66
2022/05/12 07:16:03;;;;;;;4.38;3.30;;;23.60;50.30;;;;;;4991559;28;20945;-66
2022/05/12 07:18:29;;;;;;;4.00;3.33;;;23.60;50.20;;;;;;4992490;28;20390;-66
2022/05/12 07:26:40;;;;;;;3.90;3.20;;;23.60;50.20;;;;;;4997987;28;20467;-65
2022/05/12 07:29:11;;;;;;;4.23;2.90;;;23.60;50.70;;;;;;4998105;28;20437;-65
2022/05/12 07:31:37;;;;;;;4.90;3.00;;;23.60;50.00;;;;;;4997866;28;20424;-65
2022/05/12 07:34:03;;;;;;;3.97;3.00;;;23.60;49.80;;;;;;4998020;28;20386;-66
2022/05/12 07:36:33;;;;;;;4.13;3.30;;;23.60;49.90;;;;;;4994581;28;20396;-64
2022/05/12 07:39:00;;;;;;;4.43;3.20;;;23.60;49.90;;;;;;4986560;28;20479;-66
2022/05/12 07:41:27;;;;;;;4.18;3.10;;;23.60;50.00;;;;;;4998559;28;20805;-66
2022/05/12 07:43:54;;;;;;;4.25;2.85;;;23.60;50.00;;;;;;4997710;28;20396;-66
2022/05/12 07:46:23;;;;;;;5.57;3.10;;;23.60;49.90;;;;;;4998453;28;20398;-65
2022/05/12 07:48:49;;;;;;;4.90;3.30;;;23.60;49.90;;;;;;4998584;28;20398;-65
2022/05/12 07:51:17;;;;;;;5.32;3.03;;;23.60;49.70;;;;;;4998004;28;20497;-65
2022/05/12 07:53:46;;;;;;;6.20;3.30;;;23.60;49.80;;;;;;4997824;28;20468;-66
2022/05/12 07:56:12;;;;;;;4.03;3.03;;;23.60;49.70;;;;;;4997969;28;20425;-66
2022/05/12 07:58:38;;;;;;;5.90;3.10;;;23.60;49.80;;;;;;4998037;28;20457;-66
2022/05/12 08:01:05;;;;;;;5.15;3.20;;;23.70;49.80;;;;;;4998027;28;20473;-66
2022/05/12 08:03:31;;;;;;;5.17;3.07;;;23.70;50.30;;;;;;4997713;28;20460;-65
2022/05/12 08:05:58;;;;;;;4.60;3.20;;;23.70;49.80;;;;;;4997233;28;20398;-65
2022/05/12 08:08:24;;;;;;;3.67;3.10;;;23.70;49.80;;;;;;4997320;28;20494;-66
2022/05/12 08:10:49;;;;;;;4.47;2.90;;;23.60;49.60;;;;;;4997454;28;20496;-66
2022/05/12 08:13:16;;;;;;;4.00;3.00;;;23.70;49.60;;;;;;4997643;28;20505;-66
2022/05/12 08:15:46;;;;;;;4.25;2.85;;;23.60;49.70;;;;;;4997675;28;20925;-65
2022/05/12 08:18:12;;;;;;;4.47;3.03;;;23.60;49.60;;;;;;4997332;28;20470;-66
2022/05/12 08:20:39;;;;;;;3.00;2.70;;;23.70;49.60;;;;;;4997756;28;20473;-66
2022/05/12 08:23:05;;;;;;;3.20;2.90;;;23.70;49.60;;;;;;4997853;28;20399;-66
2022/05/12 08:25:32;;;;;;;5.25;3.20;;;23.60;49.60;;;;;;4997854;28;20410;-66
2022/05/12 08:27:57;;;;;;;4.28;2.95;;;23.60;49.50;;;;;;4997103;28;20417;-65
2022/05/12 08:30:23;;;;;;;3.97;3.03;;;23.70;49.50;;;;;;5011660;28;20887;-65
2022/05/12 08:32:49;;;;;;;5.03;2.97;;;23.60;49.40;;;;;;4988029;28;20428;-65
2022/05/12 08:35:14;;;;;;;5.07;3.30;;;23.70;49.40;;;;;;4986030;28;20403;-66
2022/05/12 08:37:40;;;;;;;7.85;5.97;;;23.70;49.90;;;;;;4986755;28;20801;-66
2022/05/12 08:40:13;;;;;;;7.63;5.35;;;23.70;51.40;;;;;;4984155;28;20407;-66
2022/05/12 08:42:43;;;;;;;10.50;4.13;;;23.70;51.20;;;;;;5000430;28;20481;-66
2022/05/12 08:45:12;;;;;;;8.50;3.80;;;23.70;50.90;;;;;;4983878;28;20408;-65
2022/05/12 08:47:46;;;;;;;6.63;3.60;;;23.70;50.80;;;;;;4994500;28;20889;-65
2022/05/12 08:50:21;;;;;;;6.57;3.40;;;23.70;50.40;;;;;;4994380;28;20509;-65
2022/05/12 08:52:51;;;;;;;6.50;3.40;;;23.70;50.30;;;;;;4994472;28;20437;-65
2022/05/12 08:55:31;;;;;;;7.07;3.20;;;23.70;50.20;;;;;;4999650;28;20592;-65
2022/05/12 08:58:05;;;;;;;4.97;3.30;;;23.70;50.10;;;;;;5011218;28;20403;-65
2022/05/12 09:01:07;;;;;;;6.07;3.58;;;23.70;50.10;;;;;;5014439;28;20389;-65
2022/05/12 09:03:56;;;;;;;6.40;3.53;;;23.70;50.00;;;;;;5013973;28;20447;-65
2022/05/12 09:06:34;;;;;;;4.43;3.00;;;23.70;50.00;;;;;;5005707;28;20432;-65
2022/05/12 09:09:21;;;;;;;7.10;3.38;;;23.70;49.90;;;;;;4994352;28;20402;-65
2022/05/12 09:12:01;;;;;;;5.53;3.45;;;23.70;49.90;;;;;;4993692;28;20430;-66
2022/05/12 09:14:45;;;;;;;4.70;3.20;;;23.70;49.80;;;;;;5009015;28;20402;-65
2022/05/12 09:17:21;;;;;;;4.10;3.30;;;23.70;49.80;;;;;;5008980;28;20801;-65
2022/05/12 09:19:47;;;;;;;3.80;3.03;;;23.70;49.70;;;;;;4991855;28;20549;-65
2022/05/12 09:22:13;;;;;;;4.38;3.20;;;23.70;49.60;;;;;;5008792;28;20430;-65
2022/05/12 09:24:39;;;;;;;3.97;3.40;;;23.70;49.60;;;;;;4993866;28;20481;-65
2022/05/12 09:27:13;;;;;;;3.80;3.03;;;23.70;49.60;;;;;;4993935;28;20878;-65
2022/05/12 09:29:47;;;;;;;3.30;2.83;;;23.70;49.50;;;;;;5008904;28;20905;-65
2022/05/12 09:32:13;;;;;;;4.78;2.80;;;23.70;49.50;;;;;;4991593;28;20428;-66
2022/05/12 09:34:46;;;;;;;3.90;2.87;;;23.70;49.50;;;;;;4993585;28;20386;-64
2022/05/12 09:37:15;;;;;;;4.57;3.05;;;23.70;49.40;;;;;;5002101;28;20419;-65
2022/05/12 09:39:51;;;;;;;5.88;3.08;;;23.70;49.60;;;;;;4981075;28;20868;-64
2022/05/12 09:42:28;;;;;;;4.32;3.00;;;23.70;49.50;;;;;;4973277;28;20424;-65
2022/05/12 09:45:05;;;;;;;4.10;2.90;;;23.70;49.50;;;;;;4974067;28;20392;-64
2022/05/12 09:47:32;;;;;;;4.13;3.10;;;23.70;49.50;;;;;;4973668;28;20479;-64
2022/05/12 09:50:16;;;;;;;4.43;3.00;;;23.70;49.40;;;;;;4973532;28;20400;-65
2022/05/12 09:52:54;;;;;;;4.38;3.20;;;23.70;49.30;;;;;;4997021;28;20501;-64
2022/05/12 09:55:27;;;;;;;8.88;3.05;;;23.70;49.50;;;;;;5006875;28;20414;-64
2022/05/12 09:57:57;;;;;;;7.65;3.28;;;23.70;49.40;;;;;;4992789;28;20490;-64
2022/05/12 10:00:38;;;;;;;5.73;3.20;;;23.70;49.40;;;;;;4993677;28;20405;-64
2022/05/12 10:09:22;;;;;;;6.10;3.20;;;23.70;49.30;;;;;;4983210;28;20453;-64
2022/05/12 10:12:18;;;;;;;4.05;3.10;;;23.70;49.20;;;;;;4983457;28;20426;-65
2022/05/12 10:15:26;;;;;;;4.47;3.03;;;23.80;49.20;;;;;;4982416;28;20489;-65
2022/05/12 10:17:59;;;;;;;5.32;3.38;;;23.80;49.30;;;;;;4958790;28;20421;-65
2022/05/12 10:20:30;;;;;;;3.53;2.70;;;23.80;49.30;;;;;;4980319;28;21639;-64
2022/05/12 10:23:10;;;;;;;4.72;2.80;;;23.70;49.20;;;;;;4982164;28;20396;-65
2022/05/12 10:26:04;;;;;;;4.75;3.00;;;23.80;49.30;;;;;;4991166;28;20897;-65
2022/05/12 10:28:46;;;;;;;4.00;2.80;;;23.80;49.30;;;;;;4992660;28;20460;-64
2022/05/12 10:31:24;;;;;;;3.55;2.80;;;23.70;49.10;;;;;;4992256;28;20540;-64
2022/05/12 10:34:18;;;;;;;4.40;2.80;;;23.80;49.30;;;;;;4992176;28;20934;-64
2022/05/12 10:36:59;;;;;;;4.03;3.03;;;23.80;49.40;;;;;;5007458;28;20403;-65
2022/05/12 10:39:31;;;;;;;4.15;3.00;;;23.80;49.20;;;;;;5007450;28;20397;-64
2022/05/12 10:42:18;;;;;;;3.83;2.78;;;23.80;49.20;;;;;;4991385;28;20456;-65
2022/05/12 10:45:13;;;;;;;3.22;2.90;;;23.80;49.10;;;;;;4991989;28;20402;-64
2022/05/12 10:47:47;;;;;;;3.78;2.63;;;23.80;49.20;;;;;;4976205;28;20445;-64
2022/05/12 10:50:37;;;;;;;4.03;2.83;;;23.80;49.20;;;;;;5007159;28;20410;-64
2022/05/12 10:53:13;;;;;;;4.38;3.05;;;23.80;49.00;;;;;;4991715;28;20403;-64
2022/05/12 10:56:26;;;;;;;3.53;2.83;;;23.80;49.00;;;;;;4991800;28;20386;-65
2022/05/12 10:59:35;;;;;;;3.00;2.70;;;23.80;49.30;;;;;;4956164;28;20961;-64
2022/05/12 11:02:19;;;;;;;3.67;2.83;;;23.80;49.20;;;;;;4991610;28;20387;-64
2022/05/12 11:04:49;;;;;;;4.50;2.90;;;23.90;48.90;;;;;;4991862;28;20466;-65
2022/05/12 11:07:33;;;;;;;3.60;2.70;;;23.90;49.00;;;;;;4991850;28;20441;-65
2022/05/12 11:10:24;;;;;;;4.25;3.05;;;23.80;48.90;;;;;;4991605;28;20438;-64
2022/05/12 11:12:54;;;;;;;4.32;2.88;;;23.80;48.90;;;;;;4991720;28;20430;-64
2022/05/12 11:15:27;;;;;;;3.20;2.70;;;23.90;48.90;;;;;;4992049;28;20386;-64
2022/05/12 11:18:04;;;;;;;3.83;2.78;;;23.80;48.80;;;;;;4991633;28;20905;-64
2022/05/12 11:20:43;;;;;;;3.60;2.90;;;23.90;48.80;;;;;;4991937;28;20775;-64
2022/05/12 11:23:33;;;;;;;3.93;2.80;;;23.90;48.80;;;;;;4991776;28;20398;-64
2022/05/12 11:26:18;;;;;;;4.50;3.00;;;23.90;49.10;;;;;;4991347;28;20794;-64
2022/05/12 11:31:46;;;;;;;5.28;2.85;;;23.90;49.30;;;;;;4991492;28;20429;-64
2022/05/12 11:34:22;;;;;;;7.40;3.33;;;23.90;49.30;;;;;;5006363;28;20406;-64
2022/05/12 11:36:51;;;;;;;9.93;6.72;;;23.90;49.50;;;;;;4991879;28;20917;-64
2022/05/12 11:39:37;;;;;;;5.78;4.20;;;24.00;50.70;;;;;;5006308;28;20407;-65
2022/05/12 11:42:13;;;;;;;5.55;3.70;;;24.00;50.40;;;;;;4991293;28;20485;-64
2022/05/12 11:45:01;;;;;;;4.60;3.20;;;24.00;50.30;;;;;;4991654;28;20378;-64
2022/05/12 11:48:00;;;;;;;5.03;3.40;;;24.00;49.80;;;;;;4991597;28;20409;-64
2022/05/12 11:50:37;;;;;;;3.95;3.22;;;24.00;50.40;;;;;;4991397;28;20448;-64
2022/05/12 11:53:12;;;;;;;4.05;3.25;;;24.00;49.90;;;;;;4991610;28;20414;-64
2022/05/12 11:55:53;;;;;;;3.60;3.30;;;24.00;49.80;;;;;;4991319;28;20417;-65
2022/05/12 11:58:32;;;;;;;3.63;3.00;;;24.10;49.40;;;;;;4991257;28;20399;-64
2022/05/12 12:01:01;;;;;;;4.05;3.25;;;24.10;49.80;;;;;;4991474;28;20404;-64
2022/05/12 12:03:26;;;;;;;4.45;3.30;;;24.10;49.40;;;;;;4991248;28;20399;-65
2022/05/12 12:05:52;;;;;;;3.27;2.97;;;24.10;49.50;;;;;;4993136;28;20437;-64
2022/05/12 12:08:30;;;;;;;4.15;3.15;;;24.10;49.40;;;;;;4994785;28;20390;-64
2022/05/12 12:11:19;;;;;;;3.60;3.05;;;24.10;49.20;;;;;;4994978;28;20429;-64
2022/05/12 12:14:04;;;;;;;3.72;3.15;;;24.10;49.10;;;;;;4995008;28;20473;-64
2022/05/12 12:17:23;;;;;;;3.58;2.92;;;24.10;48.90;;;;;;4995072;28;20387;-65
2022/05/12 12:19:52;;;;;;;3.40;3.10;;;24.20;49.10;;;;;;4973077;28;20952;-65
2022/05/12 12:22:26;;;;;;;3.38;2.90;;;24.20;49.10;;;;;;4994451;28;20398;-64
2022/05/12 12:24:58;;;;;;;4.50;3.17;;;24.20;49.00;;;;;;4994817;28;20952;-65
2022/05/12 12:27:39;;;;;;;3.83;3.20;;;24.20;48.90;;;;;;4994716;28;20480;-64
2022/05/12 12:30:30;;;;;;;4.67;3.00;;;24.20;48.70;;;;;;4994375;28;20404;-64
2022/05/12 12:33:24;;;;;;;3.33;2.97;;;24.20;48.80;;;;;;4994461;28;20422;-65
2022/05/12 12:36:03;;;;;;;3.10;2.80;;;24.20;48.70;;;;;;4994619;28;20411;-65
2022/05/12 12:38:44;;;;;;;3.17;2.85;;;24.20;48.70;;;;;;4994190;28;20871;-65
2022/05/12 12:41:12;;;;;;;3.67;3.17;;;24.20;48.70;;;;;;5004367;28;20394;-65
2022/05/12 12:43:46;;;;;;;3.28;2.90;;;24.20;48.60;;;;;;4994493;28;20401;-66
2022/05/12 12:46:29;;;;;;;3.35;2.90;;;24.20;48.50;;;;;;5009192;28;20391;-65
2022/05/12 12:49:13;;;;;;;4.13;2.97;;;24.20;48.50;;;;;;4994643;28;20403;-65
2022/05/12 12:51:40;;;;;;;3.30;3.00;;;24.20;48.50;;;;;;5002831;28;20423;-66
2022/05/12 12:57:11;;;;;;;4.10;3.08;;;24.30;48.60;;;;;;5013960;28;20486;-65
2022/05/12 12:59:49;;;;;;;3.30;3.00;;;24.30;48.50;;;;;;5013707;28;20719;-66
2022/05/12 13:02:32;;;;;;;3.35;2.90;;;24.20;48.40;;;;;;5012025;28;20397;-65
2022/05/12 13:05:04;;;;;;;3.53;2.90;;;24.30;48.50;;;;;;5013818;28;20904;-66
2022/05/12 13:07:32;;;;;;;3.30;2.90;;;24.30;48.40;;;;;;5029043;28;20887;-65
2022/05/12 13:10:00;;;;;;;3.92;2.90;;;24.30;48.60;;;;;;5013544;28;20443;-65
2022/05/12 13:12:27;;;;;;;3.03;2.72;;;24.30;48.50;;;;;;5002357;28;20468;-65
2022/05/12 13:14:54;;;;;;;3.63;3.10;;;24.30;48.70;;;;;;4994009;28;20525;-66
2022/05/12 13:17:30;;;;;;;3.95;3.00;;;24.30;48.70;;;;;;4992749;28;20410;-66
2022/05/12 13:19:59;;;;;;;4.70;3.00;;;24.30;48.40;;;;;;4993759;28;20402;-66
2022/05/12 13:22:36;;;;;;;5.50;3.00;;;24.30;48.80;;;;;;4993869;28;20409;-66
2022/05/12 13:25:03;;;;;;;4.47;3.08;;;24.30;48.80;;;;;;4994054;28;20851;-66
2022/05/12 13:27:38;;;;;;;4.40;2.80;;;24.30;48.70;;;;;;4993906;28;20410;-66